Time;durP1;ratioP1;P1;durP2;ratioP2;P2;SDS_P1;SDS_P2;PMS_P1;PMS_P2;Temp;Humidity;BMP_temperature;BMP_pressure;BME280_temperature;BME280_humidity;BME280_pressure;Samples;Min_cycle;Max_cycle;Signal;HPM_P1;HPM_P2
2023/02/14 00:00:41;;;;;;;12.07;10.53;;;1.40;99.90;;;;;;5012040;28;20381;-72
2023/02/14 00:03:07;;;;;;;14.00;10.60;;;1.50;99.90;;;;;;5011428;28;20389;-72
2023/02/14 00:05:33;;;;;;;13.20;10.30;;;1.00;99.90;;;;;;5011149;28;20432;-72
2023/02/14 00:07:58;;;;;;;12.10;10.00;;;0.80;99.90;;;;;;5011941;28;20835;-73
2023/02/14 00:10:24;;;;;;;14.20;11.57;;;1.40;99.90;;;;;;5012313;28;20426;-73
2023/02/14 00:12:49;;;;;;;14.00;10.10;;;1.00;99.90;;;;;;5012191;28;20436;-72
2023/02/14 00:15:21;;;;;;;12.07;10.40;;;0.90;99.90;;;;;;5011727;28;20424;-73
2023/02/14 00:17:47;;;;;;;12.95;10.05;;;1.20;99.90;;;;;;5011215;28;20531;-72
2023/02/14 00:20:13;;;;;;;12.27;8.93;;;1.10;99.90;;;;;;5011131;28;20397;-72
2023/02/14 00:22:38;;;;;;;10.43;8.65;;;1.40;99.90;;;;;;5011522;28;20388;-72
2023/02/14 00:25:04;;;;;;;11.32;9.80;;;0.80;99.90;;;;;;5011276;28;20381;-72
2023/02/14 00:27:30;;;;;;;10.15;8.25;;;1.00;99.90;;;;;;5004325;28;20918;-72
2023/02/14 00:30:00;;;;;;;11.50;8.77;;;0.80;99.90;;;;;;5001346;28;20443;-72
2023/02/14 00:32:26;;;;;;;10.75;8.90;;;0.70;99.90;;;;;;5007298;28;20410;-72
2023/02/14 00:34:51;;;;;;;9.90;8.80;;;0.90;99.90;;;;;;4991370;28;20390;-72
2023/02/14 00:37:17;;;;;;;10.67;8.77;;;0.60;99.90;;;;;;4991148;28;20418;-72
2023/02/14 00:39:43;;;;;;;10.70;7.87;;;1.20;99.90;;;;;;5001889;28;20383;-72
2023/02/14 00:42:08;;;;;;;9.20;8.00;;;0.60;99.90;;;;;;5008630;28;20399;-72
2023/02/14 00:44:34;;;;;;;9.83;8.37;;;0.80;99.90;;;;;;5010671;28;20547;-72
2023/02/14 00:46:59;;;;;;;9.20;8.20;;;1.40;99.90;;;;;;5011052;28;20417;-72
2023/02/14 00:49:25;;;;;;;10.00;7.63;;;0.60;99.90;;;;;;5010849;28;20389;-72
2023/02/14 00:51:50;;;;;;;9.80;8.40;;;0.50;99.90;;;;;;5007367;28;20468;-72
2023/02/14 00:54:16;;;;;;;12.30;9.20;;;0.70;99.90;;;;;;5001183;28;20447;-72
2023/02/14 00:56:41;;;;;;;10.20;8.20;;;0.70;99.90;;;;;;5010030;28;20818;-72
2023/02/14 00:59:07;;;;;;;10.40;8.80;;;1.40;99.90;;;;;;5010652;28;20476;-72
2023/02/14 01:01:32;;;;;;;11.73;8.77;;;0.40;99.90;;;;;;5009108;28;20428;-72
2023/02/14 01:03:58;;;;;;;9.38;8.45;;;0.80;99.90;;;;;;5010375;28;20396;-72
2023/02/14 01:06:24;;;;;;;11.07;8.75;;;0.40;99.90;;;;;;5010612;28;20795;-72
2023/02/14 01:08:49;;;;;;;9.83;8.30;;;0.50;99.90;;;;;;5011073;28;20385;-72
2023/02/14 01:11:17;;;;;;;9.40;8.17;;;0.50;99.90;;;;;;5010088;28;20388;-72
2023/02/14 01:13:43;;;;;;;9.60;7.93;;;0.60;99.90;;;;;;5010270;28;20479;-72
2023/02/14 01:16:12;;;;;;;10.15;8.02;;;0.90;99.90;;;;;;5001926;28;20890;-72
2023/02/14 01:18:38;;;;;;;10.45;9.15;;;1.10;99.90;;;;;;5010280;28;20471;-72
2023/02/14 01:21:31;;;;;;;10.63;7.90;;;1.10;99.90;;;;;;5010438;28;20432;-72
2023/02/14 01:23:59;;;;;;;9.15;7.82;;;0.90;99.90;;;;;;5010360;28;20427;-72
2023/02/14 01:26:26;;;;;;;9.55;7.95;;;0.90;99.90;;;;;;5008586;28;20419;-73
2023/02/14 01:28:52;;;;;;;9.32;7.75;;;1.50;99.90;;;;;;5010468;28;20420;-72
2023/02/14 01:31:20;;;;;;;9.80;7.60;;;1.20;99.90;;;;;;5010365;28;20400;-72
2023/02/14 01:33:47;;;;;;;9.68;8.00;;;1.00;99.90;;;;;;5010093;28;20835;-72
2023/02/14 01:36:19;;;;;;;9.10;6.95;;;0.90;99.90;;;;;;5010025;28;20388;-72
2023/02/14 01:38:45;;;;;;;8.45;6.75;;;0.70;99.90;;;;;;5010242;28;20469;-72
2023/02/14 01:41:11;;;;;;;7.97;6.63;;;0.50;99.90;;;;;;5010450;28;20476;-72
2023/02/14 01:43:58;;;;;;;7.88;6.78;;;0.40;99.90;;;;;;5010468;28;20393;-72
2023/02/14 01:46:26;;;;;;;8.40;7.15;;;0.60;99.90;;;;;;5009558;28;20807;-72
2023/02/14 01:48:55;;;;;;;7.80;6.93;;;0.50;99.90;;;;;;5010300;28;20392;-72
2023/02/14 01:51:21;;;;;;;7.50;6.70;;;0.60;99.90;;;;;;5010417;28;20479;-72
2023/02/14 01:53:49;;;;;;;8.32;7.00;;;0.50;99.90;;;;;;5010239;28;20917;-73
2023/02/14 01:56:19;;;;;;;7.70;6.80;;;0.70;99.90;;;;;;5009922;28;20790;-72
2023/02/14 01:58:49;;;;;;;7.77;6.90;;;0.50;99.90;;;;;;5009941;28;20771;-72
2023/02/14 02:01:16;;;;;;;9.43;7.72;;;0.50;99.90;;;;;;5009733;28;20462;-72
2023/02/14 02:03:51;;;;;;;8.50;7.18;;;0.90;99.90;;;;;;5009922;28;20462;-72
2023/02/14 02:06:24;;;;;;;11.25;7.50;;;0.50;99.90;;;;;;5009585;28;20400;-72
2023/02/14 02:09:12;;;;;;;7.57;6.72;;;0.40;99.90;;;;;;5009899;28;20468;-72
2023/02/14 02:11:37;;;;;;;8.75;6.88;;;0.40;99.90;;;;;;4990542;28;20876;-72
2023/02/14 02:14:04;;;;;;;8.23;6.60;;;;;;;;;;4990469;28;20382;-72
2023/02/14 02:16:38;;;;;;;7.93;6.50;;;0.30;99.90;;;;;;4997750;28;20393;-72
2023/02/14 02:19:43;;;;;;;7.85;6.65;;;0.70;99.90;;;;;;5013590;28;20426;-72
2023/02/14 02:22:20;;;;;;;7.20;6.50;;;0.40;99.90;;;;;;5014024;28;20407;-72
2023/02/14 02:24:54;;;;;;;7.05;6.35;;;0.00;99.90;;;;;;5013641;28;20870;-72
2023/02/14 02:27:46;;;;;;;8.23;6.75;;;0.20;99.90;;;;;;5006497;28;20400;-72
2023/02/14 02:30:30;;;;;;;7.97;6.50;;;0.20;99.90;;;;;;5004918;28;20406;-73
2023/02/14 02:33:16;;;;;;;7.60;6.35;;;0.20;99.90;;;;;;5013338;28;20397;-72
2023/02/14 02:36:13;;;;;;;8.38;7.47;;;0.20;99.90;;;;;;4993406;28;20405;-72
2023/02/14 02:39:10;;;;;;;7.40;6.45;;;0.00;99.90;;;;;;5013607;28;20409;-72
2023/02/14 02:41:45;;;;;;;9.10;7.20;;;0.00;99.90;;;;;;5013755;28;20407;-72
2023/02/14 02:44:52;;;;;;;6.90;6.20;;;-0.20;99.90;;;;;;5013485;28;20377;-72
2023/02/14 02:47:24;;;;;;;7.35;6.05;;;-0.20;99.90;;;;;;5009659;28;20485;-72
2023/02/14 02:53:16;;;;;;;7.40;6.35;;;0.00;99.90;;;;;;5013086;28;20437;-73
2023/02/14 02:58:47;;;;;;;7.45;6.20;;;-0.10;99.90;;;;;;5012946;28;20779;-72
2023/02/14 03:01:18;;;;;;;7.00;6.30;;;-0.10;99.90;;;;;;5012894;28;20380;-72
2023/02/14 03:06:32;;;;;;;6.50;5.90;;;0.00;99.90;;;;;;5012250;28;20404;-72
2023/02/14 03:09:28;;;;;;;6.95;5.57;;;0.00;99.90;;;;;;5012623;28;20415;-73
2023/02/14 03:12:17;;;;;;;6.20;5.60;;;0.00;99.90;;;;;;5004557;28;20893;-72
2023/02/14 03:14:54;;;;;;;6.13;5.53;;;0.10;99.90;;;;;;5012624;28;20393;-72
2023/02/14 03:17:34;;;;;;;7.35;6.00;;;0.70;99.90;;;;;;5012393;28;20520;-72
2023/02/14 03:20:16;;;;;;;6.10;5.50;;;0.30;99.90;;;;;;5012499;28;20717;-72
2023/02/14 03:23:11;;;;;;;6.80;5.68;;;0.10;99.90;;;;;;5012725;28;20415;-72
2023/02/14 03:25:46;;;;;;;6.10;5.43;;;-0.10;99.90;;;;;;5001488;28;20399;-72
2023/02/14 03:28:21;;;;;;;6.20;5.60;;;-0.10;99.90;;;;;;5010937;28;20425;-72
2023/02/14 03:30:58;;;;;;;7.70;5.60;;;0.10;99.90;;;;;;5012333;28;20404;-72
2023/02/14 03:33:30;;;;;;;6.00;5.40;;;-0.10;99.90;;;;;;5012469;28;20862;-72
2023/02/14 03:36:14;;;;;;;6.30;5.70;;;-0.30;99.90;;;;;;5011570;28;20401;-72
2023/02/14 03:39:06;;;;;;;7.13;6.05;;;-0.30;99.90;;;;;;5012241;28;20409;-72
2023/02/14 03:41:39;;;;;;;7.00;6.30;;;-0.20;99.90;;;;;;5012255;28;20838;-72
2023/02/14 03:44:10;;;;;;;9.30;8.40;;;0.10;99.90;;;;;;5012596;28;20381;-73
2023/02/14 03:46:44;;;;;;;9.00;5.68;;;-0.20;99.90;;;;;;5011839;28;20389;-72
2023/02/14 03:49:14;;;;;;;6.00;5.40;;;-0.20;99.90;;;;;;5012011;28;20397;-72
2023/02/14 03:51:43;;;;;;;5.80;5.20;;;0.30;99.90;;;;;;5011990;28;20443;-72
2023/02/14 03:54:11;;;;;;;6.28;5.53;;;0.10;99.90;;;;;;5012084;28;20447;-72
2023/02/14 03:56:48;;;;;;;7.25;5.10;;;-0.10;99.90;;;;;;5011218;28;20401;-72
2023/02/14 03:59:17;;;;;;;5.90;5.30;;;-0.10;99.90;;;;;;5011734;28;20911;-72
2023/02/14 04:02:07;;;;;;;6.40;4.67;;;0.20;99.90;;;;;;5011387;28;20392;-72
2023/02/14 04:04:37;;;;;;;5.90;5.30;;;0.00;99.90;;;;;;5005009;28;20914;-73
2023/02/14 04:07:11;;;;;;;5.90;5.30;;;-0.30;99.90;;;;;;4998366;28;20486;-73
2023/02/14 04:09:36;;;;;;;6.27;5.00;;;0.20;99.90;;;;;;4992262;28;20421;-73
2023/02/14 04:12:02;;;;;;;5.57;4.87;;;-0.10;99.90;;;;;;4992099;28;20765;-72
2023/02/14 04:14:29;;;;;;;5.47;4.90;;;-0.20;99.90;;;;;;5008683;28;20922;-72
2023/02/14 04:19:39;;;;;;;5.78;5.18;;;0.00;99.90;;;;;;5011838;28;20422;-72
2023/02/14 04:22:04;;;;;;;7.15;4.93;;;0.50;99.90;;;;;;5011493;28;20424;-72
2023/02/14 04:24:30;;;;;;;4.85;4.35;;;-0.30;99.90;;;;;;5011291;28;20377;-72
2023/02/14 04:27:10;;;;;;;6.35;5.20;;;-0.30;99.90;;;;;;5008839;28;20400;-72
2023/02/14 04:29:45;;;;;;;5.80;5.20;;;-0.30;99.90;;;;;;5000058;28;21067;-72
2023/02/14 04:32:14;;;;;;;6.53;5.30;;;-0.40;99.90;;;;;;5010271;28;20428;-73
2023/02/14 04:34:40;;;;;;;4.90;4.30;;;-0.30;99.90;;;;;;5011491;28;20393;-72
2023/02/14 04:37:06;;;;;;;6.55;5.45;;;-0.30;99.90;;;;;;5002607;28;20420;-73
2023/02/14 04:39:33;;;;;;;7.07;4.90;;;-0.50;99.90;;;;;;5011360;28;20393;-73
2023/02/14 04:41:59;;;;;;;5.85;5.25;;;0.30;99.90;;;;;;5011618;28;20400;-72
2023/02/14 04:44:24;;;;;;;5.93;5.33;;;-0.30;99.90;;;;;;5011442;28;20763;-72
2023/02/14 04:46:50;;;;;;;6.17;5.20;;;-0.50;99.90;;;;;;5011052;28;20385;-72
2023/02/14 04:49:16;;;;;;;5.80;4.80;;;0.00;99.90;;;;;;5004428;28;20559;-72
2023/02/14 04:51:42;;;;;;;6.28;5.10;;;0.10;99.90;;;;;;4996950;28;20958;-72
2023/02/14 04:54:07;;;;;;;6.23;5.63;;;-0.10;99.90;;;;;;4991756;28;20405;-72
2023/02/14 04:56:33;;;;;;;6.70;4.90;;;-0.60;99.90;;;;;;5056736;22;20961;-75
2023/02/14 04:58:59;;;;;;;5.77;5.20;;;-0.60;99.90;;;;;;5065969;28;20752;-75
2023/02/14 05:01:25;;;;;;;6.63;4.90;;;-0.40;99.90;;;;;;5052499;28;20374;-75
2023/02/14 05:03:50;;;;;;;6.78;5.55;;;-0.40;99.90;;;;;;5055094;28;20905;-74
2023/02/14 05:06:16;;;;;;;5.30;4.80;;;-0.40;99.90;;;;;;5050208;28;20385;-73
2023/02/14 05:08:41;;;;;;;5.70;5.10;;;-0.40;99.90;;;;;;5050798;28;20378;-73
2023/02/14 05:11:07;;;;;;;6.03;5.00;;;-0.20;99.90;;;;;;5050544;28;20382;-73
2023/02/14 05:13:32;;;;;;;5.40;4.90;;;-0.30;99.90;;;;;;5058577;28;20421;-73
2023/02/14 05:15:58;;;;;;;8.37;6.30;;;-0.20;99.90;;;;;;5066100;28;20894;-74
2023/02/14 05:18:25;;;;;;;11.45;7.88;;;0.10;99.90;;;;;;5048828;28;20397;-74
2023/02/14 05:20:52;;;;;;;9.43;7.80;;;-0.10;99.90;;;;;;5050424;28;20389;-74
2023/02/14 05:23:17;;;;;;;8.55;6.95;;;-0.40;99.90;;;;;;5050317;28;20377;-73
2023/02/14 05:25:43;;;;;;;7.60;6.10;;;-0.30;99.90;;;;;;5050027;28;20428;-74
2023/02/14 05:28:09;;;;;;;8.93;6.63;;;-0.30;99.90;;;;;;5050807;28;20446;-74
2023/02/14 05:30:36;;;;;;;5.90;5.30;;;0.30;99.90;;;;;;5051444;28;20425;-73
2023/02/14 05:33:01;;;;;;;6.82;4.68;;;-0.10;99.90;;;;;;5064337;28;20392;-73
2023/02/14 05:35:27;;;;;;;7.47;5.10;;;-0.80;99.90;;;;;;5069832;28;20769;-74
2023/02/14 05:37:53;;;;;;;4.90;4.40;;;0.00;99.90;;;;;;5068932;28;20465;-74
2023/02/14 05:40:18;;;;;;;5.85;5.10;;;-0.20;99.90;;;;;;5070470;28;20388;-73
2023/02/14 05:42:44;;;;;;;5.20;4.28;;;0.40;99.90;;;;;;5068431;28;20473;-73
2023/02/14 05:45:11;;;;;;;6.25;5.20;;;0.20;99.90;;;;;;5052588;28;20393;-73
2023/02/14 05:47:36;;;;;;;7.60;5.57;;;-0.60;99.90;;;;;;5049899;28;20390;-73
2023/02/14 05:50:03;;;;;;;5.50;5.00;;;-0.80;99.90;;;;;;5050098;28;20468;-73
2023/02/14 05:52:28;;;;;;;5.53;5.00;;;-0.70;99.90;;;;;;5052119;28;20431;-74
2023/02/14 05:54:54;;;;;;;5.23;4.57;;;-0.80;99.90;;;;;;5053883;28;20386;-73
2023/02/14 05:57:19;;;;;;;5.23;4.73;;;-0.80;99.90;;;;;;5053677;28;20914;-74
2023/02/14 05:59:44;;;;;;;5.73;4.77;;;-0.80;99.90;;;;;;5068234;28;20403;-74
2023/02/14 06:02:10;;;;;;;5.20;4.70;;;-0.70;99.90;;;;;;5053989;28;20374;-74
2023/02/14 06:04:36;;;;;;;5.73;5.03;;;-0.70;99.90;;;;;;5053955;28;20438;-74
2023/02/14 06:07:02;;;;;;;6.23;5.43;;;-1.10;99.90;;;;;;5040401;28;20414;-73
2023/02/14 06:09:27;;;;;;;5.32;4.80;;;-0.90;99.90;;;;;;5066032;28;20461;-73
2023/02/14 06:11:53;;;;;;;5.63;5.05;;;-0.80;99.90;;;;;;5033754;28;20431;-74
2023/02/14 06:14:18;;;;;;;5.78;5.18;;;-0.80;99.90;;;;;;5038177;28;20879;-73
2023/02/14 06:16:44;;;;;;;6.78;5.70;;;-1.00;99.90;;;;;;5053392;28;20396;-73
2023/02/14 06:19:09;;;;;;;6.90;5.53;;;-0.70;99.90;;;;;;5050803;28;21083;-73
2023/02/14 06:21:35;;;;;;;5.80;5.20;;;-1.00;99.90;;;;;;5053529;28;20424;-74
2023/02/14 06:24:01;;;;;;;7.03;5.28;;;-0.90;99.90;;;;;;5048224;28;20399;-73
2023/02/14 06:26:26;;;;;;;5.57;5.07;;;-0.90;99.90;;;;;;5051694;28;20849;-73
2023/02/14 06:28:55;;;;;;;6.63;5.60;;;;;;;;;;5052804;28;20428;-74
2023/02/14 06:31:21;;;;;;;6.70;5.38;;;-1.00;99.90;;;;;;5060592;28;20899;-73
2023/02/14 06:33:47;;;;;;;6.80;6.10;;;-1.10;99.90;;;;;;5052143;28;20389;-74
2023/02/14 06:36:13;;;;;;;7.30;5.80;;;-0.70;99.90;;;;;;5053107;28;20934;-74
2023/02/14 06:38:38;;;;;;;7.80;6.30;;;-0.40;99.90;;;;;;5051790;28;20702;-74
2023/02/14 06:41:06;;;;;;;7.10;5.90;;;-0.60;99.90;;;;;;5052942;28;20755;-74
2023/02/14 06:43:32;;;;;;;6.60;5.90;;;-0.60;99.90;;;;;;5051785;28;21034;-74
2023/02/14 06:45:57;;;;;;;7.60;6.50;;;-0.90;99.90;;;;;;5061494;28;20419;-73
2023/02/14 06:48:23;;;;;;;7.10;6.40;;;-1.00;99.90;;;;;;5053159;28;20460;-74
2023/02/14 06:50:48;;;;;;;8.05;6.88;;;-0.50;99.90;;;;;;5052043;28;20443;-74
2023/02/14 06:53:14;;;;;;;7.32;6.60;;;-0.60;99.90;;;;;;5051726;28;20395;-74
2023/02/14 06:55:39;;;;;;;6.15;5.50;;;-0.50;99.90;;;;;;5052606;28;20402;-74
2023/02/14 06:58:05;;;;;;;7.38;5.50;;;-1.00;99.90;;;;;;5054006;28;20488;-73
2023/02/14 07:00:30;;;;;;;6.45;5.50;;;-0.80;99.90;;;;;;5052942;28;20481;-74
2023/02/14 07:02:56;;;;;;;5.60;4.90;;;-0.40;99.90;;;;;;5052667;28;20380;-74
2023/02/14 07:05:22;;;;;;;6.60;5.70;;;-0.80;99.90;;;;;;5052734;28;20897;-73
2023/02/14 07:07:47;;;;;;;6.13;5.47;;;-0.60;99.90;;;;;;5031972;28;20936;-73
2023/02/14 07:10:14;;;;;;;5.60;5.00;;;-0.80;99.90;;;;;;5032889;28;20387;-73
2023/02/14 07:12:39;;;;;;;6.40;5.40;;;-0.20;99.90;;;;;;5039407;28;20391;-73
2023/02/14 07:15:10;;;;;;;6.30;5.00;;;-0.70;99.90;;;;;;5071849;28;20878;-74
2023/02/14 07:17:36;;;;;;;5.97;5.38;;;-0.80;99.90;;;;;;5033033;28;20417;-74
2023/02/14 07:20:04;;;;;;;8.27;5.07;;;-0.30;99.90;;;;;;5033830;28;20384;-74
2023/02/14 07:22:30;;;;;;;6.20;4.80;;;-0.60;99.90;;;;;;5042008;28;20394;-73
2023/02/14 07:24:55;;;;;;;6.03;5.43;;;-0.50;99.90;;;;;;5046319;28;20397;-73
2023/02/14 07:27:21;;;;;;;6.28;5.18;;;;;;;;;;5046110;28;20411;-73
2023/02/14 07:29:47;;;;;;;6.10;5.15;;;-0.50;99.90;;;;;;5072577;28;20390;-73
2023/02/14 07:32:12;;;;;;;6.77;6.07;;;-0.50;99.90;;;;;;5072532;28;20387;-73
2023/02/14 07:34:38;;;;;;;5.90;5.40;;;-0.50;99.90;;;;;;5072502;28;20730;-73
2023/02/14 07:37:03;;;;;;;7.27;6.07;;;-0.50;99.90;;;;;;5056944;28;20436;-73
2023/02/14 07:39:32;;;;;;;6.00;5.50;;;;;;;;;;5052347;28;20385;-73
2023/02/14 07:41:57;;;;;;;6.77;5.37;;;-0.30;99.90;;;;;;5052540;28;20374;-73
2023/02/14 07:44:23;;;;;;;7.23;5.37;;;0.40;99.90;;;;;;5084453;28;20378;-73
2023/02/14 07:46:49;;;;;;;6.20;5.60;;;-0.40;99.90;;;;;;5051939;28;20443;-73
2023/02/14 07:49:14;;;;;;;6.72;5.90;;;-0.20;99.90;;;;;;5057639;28;20391;-73
2023/02/14 07:51:40;;;;;;;6.72;6.10;;;-0.30;99.90;;;;;;5072187;28;20383;-73
2023/02/14 07:54:05;;;;;;;7.20;5.40;;;0.00;99.90;;;;;;5072126;28;20384;-73
2023/02/14 07:56:31;;;;;;;6.32;5.72;;;0.00;99.90;;;;;;5071440;28;20490;-73
2023/02/14 07:58:56;;;;;;;7.85;5.75;;;0.10;99.90;;;;;;5071630;28;20932;-73
2023/02/14 08:01:22;;;;;;;6.78;5.65;;;0.40;99.90;;;;;;5071838;28;20528;-73
2023/02/14 08:03:48;;;;;;;6.50;5.90;;;0.30;99.90;;;;;;5064860;28;20966;-73
2023/02/14 08:06:15;;;;;;;6.32;5.70;;;0.50;99.90;;;;;;5058987;28;20488;-73
2023/02/14 08:08:41;;;;;;;6.72;5.90;;;0.80;99.90;;;;;;5051456;28;20420;-73
2023/02/14 08:11:06;;;;;;;18.20;12.50;;;0.30;99.90;;;;;;5051654;28;20876;-73
2023/02/14 08:13:32;;;;;;;16.87;13.23;;;0.70;99.90;;;;;;5051551;28;20382;-73
2023/02/14 08:16:04;;;;;;;18.80;15.20;;;0.90;99.90;;;;;;5050573;28;20866;-73
2023/02/14 08:18:37;;;;;;;23.08;17.58;;;1.50;99.90;;;;;;5051357;28;20416;-73
2023/02/14 08:21:04;;;;;;;26.92;19.25;;;0.70;99.90;;;;;;5068365;28;20415;-73
2023/02/14 08:23:30;;;;;;;26.63;19.38;;;0.80;99.90;;;;;;5058171;28;20391;-73
2023/02/14 08:25:56;;;;;;;27.13;19.17;;;0.90;99.90;;;;;;5051006;28;20445;-73
2023/02/14 08:28:22;;;;;;;27.02;20.08;;;0.90;99.90;;;;;;5051216;28;20394;-73
2023/02/14 08:30:49;;;;;;;30.58;21.45;;;1.00;99.90;;;;;;5051290;28;20404;-74
2023/02/14 08:33:15;;;;;;;31.92;21.27;;;1.00;99.90;;;;;;5051193;28;20392;-73
2023/02/14 08:35:40;;;;;;;32.40;21.67;;;1.10;99.90;;;;;;5050603;28;20385;-73
2023/02/14 08:38:06;;;;;;;27.90;19.55;;;1.00;99.90;;;;;;5063786;28;20411;-73
2023/02/14 08:40:35;;;;;;;27.60;20.42;;;1.10;99.90;;;;;;5051188;28;20922;-73
2023/02/14 08:43:00;;;;;;;27.80;19.10;;;1.10;99.90;;;;;;5051076;28;20426;-73
2023/02/14 08:45:26;;;;;;;24.03;18.97;;;-1.00;99.90;;;;;;5050811;28;20364;-73
2023/02/14 08:47:52;;;;;;;22.97;17.90;;;1.00;99.90;;;;;;5083225;28;20392;-73
2023/02/14 08:50:18;;;;;;;25.80;18.63;;;0.80;99.90;;;;;;5052262;28;20401;-73
2023/02/14 08:52:44;;;;;;;26.58;19.42;;;1.20;99.90;;;;;;5070825;28;20384;-73
2023/02/14 08:55:11;;;;;;;25.57;18.30;;;1.10;99.90;;;;;;5070493;28;20423;-73
2023/02/14 08:57:37;;;;;;;26.20;20.15;;;0.80;99.90;;;;;;5069308;28;20399;-72
2023/02/14 09:00:04;;;;;;;23.85;19.02;;;1.00;99.90;;;;;;5070699;28;20409;-73
2023/02/14 09:02:30;;;;;;;23.25;18.63;;;1.10;99.90;;;;;;5061395;28;20397;-72
2023/02/14 09:04:55;;;;;;;26.40;19.90;;;1.20;99.90;;;;;;5050353;28;20374;-72
2023/02/14 09:07:21;;;;;;;25.67;20.20;;;1.30;99.90;;;;;;5034725;28;20398;-73
2023/02/14 09:09:46;;;;;;;24.10;17.93;;;1.40;99.90;;;;;;5030647;28;20387;-73
2023/02/14 09:12:12;;;;;;;26.67;18.13;;;1.10;99.90;;;;;;5050524;28;20399;-73
2023/02/14 09:14:43;;;;;;;27.03;18.60;;;1.10;99.90;;;;;;5069175;28;20785;-72
2023/02/14 09:17:09;;;;;;;24.88;17.70;;;0.60;99.90;;;;;;5070176;28;20522;-73
2023/02/14 09:19:37;;;;;;;25.75;19.20;;;0.80;99.90;;;;;;5069214;28;21428;-72
2023/02/14 09:22:04;;;;;;;30.27;18.48;;;0.90;99.90;;;;;;5050627;28;20480;-72
2023/02/14 09:24:32;;;;;;;32.00;20.33;;;1.10;99.90;;;;;;5050372;28;20389;-72
2023/02/14 09:26:58;;;;;;;30.60;21.27;;;1.00;99.90;;;;;;5049938;28;20382;-73
2023/02/14 09:29:24;;;;;;;27.42;20.10;;;0.80;99.90;;;;;;5050276;28;20393;-72
2023/02/14 09:31:54;;;;;;;28.08;20.42;;;1.40;99.90;;;;;;5050346;28;20389;-72
2023/02/14 09:37:03;;;;;;;28.15;19.55;;;1.80;99.90;;;;;;5069900;28;20413;-72
2023/02/14 09:39:29;;;;;;;27.92;19.85;;;1.40;99.90;;;;;;5070231;28;20878;-73
2023/02/14 09:42:13;;;;;;;26.63;19.77;;;1.30;99.90;;;;;;5069296;28;20889;-73
2023/02/14 09:44:59;;;;;;;26.35;19.30;;;1.00;99.90;;;;;;5070232;28;20386;-73
2023/02/14 09:47:34;;;;;;;29.67;21.48;;;1.20;99.90;;;;;;5067787;28;20425;-72
2023/02/14 09:50:03;;;;;;;29.60;21.40;;;1.50;99.90;;;;;;5069697;28;20426;-73
2023/02/14 09:52:29;;;;;;;29.02;22.13;;;1.10;99.90;;;;;;5070234;28;20456;-73
2023/02/14 09:54:59;;;;;;;30.23;21.40;;;1.40;99.90;;;;;;5069757;28;20467;-73
2023/02/14 09:58:02;;;;;;;31.42;21.35;;;1.20;99.90;;;;;;5070355;28;20901;-72
2023/02/14 10:00:48;;;;;;;32.75;21.52;;;1.70;99.90;;;;;;5069111;28;20407;-73
2023/02/14 10:03:58;;;;;;;28.75;21.13;;;1.80;99.90;;;;;;5050227;28;20376;-73
2023/02/14 10:06:42;;;;;;;24.73;19.17;;;1.70;99.90;;;;;;5074167;28;20759;-72
2023/02/14 10:09:40;;;;;;;30.83;21.57;;;1.30;99.90;;;;;;5062367;28;20433;-73
2023/02/14 10:12:18;;;;;;;32.50;22.30;;;1.40;99.90;;;;;;5030540;28;20397;-73
2023/02/14 10:14:44;;;;;;;32.75;22.33;;;1.90;99.90;;;;;;5030193;28;20445;-72
2023/02/14 10:17:15;;;;;;;30.08;21.60;;;1.80;99.90;;;;;;5056096;28;20778;-73
2023/02/14 10:20:04;;;;;;;31.67;21.92;;;1.80;99.90;;;;;;5049834;28;20408;-72
2023/02/14 10:22:45;;;;;;;33.45;23.05;;;1.70;99.90;;;;;;5049932;28;20387;-72
2023/02/14 10:25:20;;;;;;;34.42;22.42;;;2.10;99.90;;;;;;5049790;28;20396;-73
2023/02/14 10:27:47;;;;;;;33.05;22.70;;;2.00;99.90;;;;;;5049790;28;20384;-72
2023/02/14 10:30:16;;;;;;;32.08;23.08;;;2.00;99.90;;;;;;5050278;28;20374;-72
2023/02/14 10:32:46;;;;;;;31.50;23.23;;;2.10;99.90;;;;;;5070118;28;20482;-73
2023/02/14 10:35:26;;;;;;;33.05;23.05;;;2.20;99.90;;;;;;5069783;28;20386;-73
2023/02/14 10:38:23;;;;;;;31.45;23.00;;;2.20;99.90;;;;;;5054564;28;20451;-73
2023/02/14 10:41:40;;;;;;;31.90;22.48;;;2.10;99.90;;;;;;5050484;28;20736;-75
2023/02/14 10:44:33;;;;;;;37.72;25.83;;;1.90;99.90;;;;;;5031245;28;20802;-73
2023/02/14 10:47:25;;;;;;;33.80;24.25;;;2.40;99.90;;;;;;5052746;28;20384;-73
2023/02/14 10:50:08;;;;;;;36.45;25.20;;;2.30;99.90;;;;;;5085216;28;20396;-73
2023/02/14 10:52:50;;;;;;;38.42;25.65;;;;;;;;;;5053091;28;20382;-73
2023/02/14 10:55:40;;;;;;;36.40;25.38;;;2.90;99.90;;;;;;5075221;22;20455;-75
2023/02/14 10:58:08;;;;;;;34.70;24.00;;;3.00;99.90;;;;;;5093504;28;20487;-76
2023/02/14 11:00:37;;;;;;;33.17;24.20;;;2.90;99.90;;;;;;5093317;28;20382;-76
2023/02/14 11:03:07;;;;;;;33.72;23.73;;;3.00;99.90;;;;;;5093121;28;20422;-76
2023/02/14 11:05:46;;;;;;;32.05;24.23;;;3.80;99.90;;;;;;5096494;28;20474;-76
2023/02/14 11:08:39;;;;;;;32.05;23.02;;;3.90;99.90;;;;;;5091888;28;20419;-77
2023/02/14 11:11:17;;;;;;;33.17;23.48;;;4.40;99.90;;;;;;5093196;28;20467;-76
2023/02/14 11:13:43;;;;;;;30.60;23.20;;;3.30;99.90;;;;;;5093236;28;20385;-76
2023/02/14 11:16:11;;;;;;;34.25;23.13;;;3.50;99.90;;;;;;5093201;28;20379;-76
2023/02/14 11:18:39;;;;;;;34.15;24.85;;;3.20;99.90;;;;;;5105436;28;20394;-76
2023/02/14 11:21:09;;;;;;;32.65;23.50;;;3.60;99.90;;;;;;5113074;28;20391;-76
2023/02/14 11:23:47;;;;;;;31.33;23.60;;;3.70;99.90;;;;;;5113114;28;20420;-75
2023/02/14 11:26:24;;;;;;;31.00;21.88;;;4.00;99.90;;;;;;5112890;28;20411;-76
2023/02/14 11:28:59;;;;;;;33.28;22.60;;;4.10;99.90;;;;;;5113118;28;20486;-76
2023/02/14 11:31:35;;;;;;;33.72;24.40;;;4.10;99.90;;;;;;5113088;28;20387;-76
2023/02/14 11:34:05;;;;;;;27.63;21.70;;;4.90;99.90;;;;;;5113212;28;20413;-76
2023/02/14 11:36:39;;;;;;;33.00;20.35;;;5.40;99.90;;;;;;5111974;28;20395;-76
2023/02/14 11:39:19;;;;;;;27.58;20.70;;;6.00;99.90;;;;;;5112989;28;20823;-76
2023/02/14 11:41:50;;;;;;;27.67;21.13;;;5.30;99.90;;;;;;5111637;28;20396;-76
2023/02/14 11:44:23;;;;;;;27.38;21.75;;;5.60;99.90;;;;;;5112936;28;20388;-75
2023/02/14 11:46:49;;;;;;;26.20;21.55;;;6.60;99.90;;;;;;5112322;27;20727;-76
2023/02/14 11:49:29;;;;;;;25.73;20.52;;;6.20;99.90;;;;;;5111668;28;20381;-76
2023/02/14 11:51:57;;;;;;;28.23;20.60;;;6.40;99.90;;;;;;5112428;28;20881;-76
2023/02/14 11:54:37;;;;;;;27.45;20.73;;;6.70;99.90;;;;;;5112317;28;20444;-73
2023/02/14 11:57:10;;;;;;;25.80;20.20;;;7.20;99.90;;;;;;5112487;28;20395;-73
2023/02/14 11:59:41;;;;;;;25.70;21.08;;;6.70;99.90;;;;;;5113049;28;20384;-76
2023/02/14 12:02:23;;;;;;;24.75;20.10;;;7.00;99.90;;;;;;5112390;28;20387;-74
2023/02/14 12:04:52;;;;;;;22.52;18.88;;;7.70;99.90;;;;;;5112529;28;20792;-73
2023/02/14 12:07:27;;;;;;;23.30;18.23;;;6.30;99.90;;;;;;5111893;28;20448;-74
2023/02/14 12:10:14;;;;;;;22.67;18.83;;;7.10;99.90;;;;;;5110758;28;20388;-75
2023/02/14 12:12:53;;;;;;;24.30;18.30;;;7.40;99.90;;;;;;5111865;28;20380;-74
2023/02/14 12:15:41;;;;;;;23.55;19.02;;;8.10;99.90;;;;;;5111944;28;20398;-74
2023/02/14 12:18:18;;;;;;;23.60;19.17;;;8.00;99.90;;;;;;5112179;28;20475;-75
2023/02/14 12:20:52;;;;;;;24.88;18.60;;;8.40;99.90;;;;;;5112000;28;20865;-74
2023/02/14 12:23:37;;;;;;;24.23;18.65;;;7.80;99.10;;;;;;5112195;28;20872;-74
2023/02/14 12:26:33;;;;;;;24.92;18.90;;;8.20;99.90;;;;;;5111518;28;20424;-74
2023/02/14 12:29:19;;;;;;;24.20;18.50;;;8.20;99.90;;;;;;5111853;28;20405;-75
2023/02/14 12:31:46;;;;;;;23.00;19.02;;;7.70;96.20;;;;;;5112581;27;20525;-75
2023/02/14 12:34:15;;;;;;;23.27;18.45;;;8.40;94.70;;;;;;5112641;28;20380;-76
2023/02/14 12:37:12;;;;;;;22.50;18.30;;;9.20;91.40;;;;;;5111762;28;20373;-75
2023/02/14 12:40:15;;;;;;;23.67;19.90;;;8.70;92.30;;;;;;5110483;28;20389;-75
2023/02/14 12:42:50;;;;;;;22.52;17.92;;;9.00;92.80;;;;;;5112016;28;20383;-75
2023/02/14 12:45:46;;;;;;;22.92;19.05;;;8.70;99.90;;;;;;5111698;28;20913;-75
2023/02/14 12:48:31;;;;;;;23.80;19.02;;;9.10;96.70;;;;;;5110589;28;20489;-75
2023/02/14 12:51:12;;;;;;;23.27;19.70;;;9.20;96.20;;;;;;5111312;28;20380;-75
2023/02/14 12:53:54;;;;;;;23.70;18.80;;;8.50;91.10;;;;;;5110498;28;20492;-76
2023/02/14 12:56:30;;;;;;;23.85;18.75;;;9.40;91.50;;;;;;5110960;28;20850;-76
2023/02/14 12:59:10;;;;;;;21.98;18.85;;;9.90;85.00;;;;;;5111812;28;20448;-76
2023/02/14 13:01:55;;;;;;;25.15;19.33;;;8.50;85.90;;;;;;5111258;28;20388;-75
2023/02/14 13:04:29;;;;;;;24.50;19.40;;;8.40;91.00;;;;;;5110216;28;20406;-75
2023/02/14 13:06:57;;;;;;;25.38;19.77;;;9.50;90.10;;;;;;5110697;28;20746;-75
2023/02/14 13:09:43;;;;;;;21.90;19.35;;;10.30;87.80;;;;;;5111399;28;20384;-75
2023/02/14 13:12:28;;;;;;;21.35;19.05;;;9.40;87.60;;;;;;5111286;28;20376;-76
2023/02/14 13:15:17;;;;;;;25.25;20.02;;;10.10;69.20;;;;;;5109823;28;20393;-75
2023/02/14 13:17:45;;;;;;;23.60;19.58;;;9.90;67.80;;;;;;5109198;28;20400;-75
2023/02/14 13:20:32;;;;;;;23.92;20.13;;;10.20;89.30;;;;;;5111003;28;20798;-75
2023/02/14 13:23:03;;;;;;;22.67;19.08;;;9.80;75.00;;;;;;5111183;28;20380;-74